Time;durP1;ratioP1;P1;durP2;ratioP2;P2;SDS_P1;SDS_P2;PMS_P1;PMS_P2;Temp;Humidity;BMP_temperature;BMP_pressure;BME280_temperature;BME280_humidity;BME280_pressure;Samples;Min_cycle;Max_cycle;Signal;HPM_P1;HPM_P2
2022/05/18 00:01:06;;;;;;;9.20;4.53;;;;;;;15.71;92.26;101670.13;5266229;28;20028;-64
2022/05/18 00:03:42;;;;;;;11.32;5.38;;;;;;;15.65;92.82;101677.72;5266594;28;20051;-64
2022/05/18 00:06:14;;;;;;;9.38;5.60;;;;;;;15.65;93.21;101676.88;5260697;28;20658;-64
2022/05/18 00:08:45;;;;;;;9.90;5.00;;;;;;;15.57;92.36;101676.66;5262562;28;20123;-64
2022/05/18 00:11:19;;;;;;;10.70;4.72;;;;;;;15.55;92.41;101674.13;5263578;28;20045;-65
2022/05/18 00:13:52;;;;;;;14.43;5.50;;;;;;;15.56;93.35;101678.50;5262812;28;20033;-64
2022/05/18 00:16:25;;;;;;;9.23;4.85;;;;;;;15.52;93.86;101670.84;5263117;28;20568;-64
2022/05/18 00:18:56;;;;;;;10.63;5.43;;;;;;;15.52;93.80;101681.59;5265680;28;20363;-65
2022/05/18 00:21:30;;;;;;;12.18;5.03;;;;;;;15.52;93.70;101687.81;5261624;28;20059;-65
2022/05/18 00:24:03;;;;;;;9.40;5.10;;;;;;;15.48;94.04;101695.28;5263377;28;20032;-65
2022/05/18 00:26:35;;;;;;;13.75;5.25;;;;;;;15.45;94.27;101686.63;5260427;28;20880;-65
2022/05/18 00:29:06;;;;;;;13.98;5.38;;;;;;;15.41;94.05;101686.03;5262422;28;20036;-64
2022/05/18 00:31:37;;;;;;;15.13;5.45;;;;;;;15.32;92.47;101689.47;5265073;28;20127;-64
2022/05/18 00:34:09;;;;;;;9.55;5.22;;;;;;;15.37;94.07;101689.09;5268863;28;20139;-64
2022/05/18 00:36:40;;;;;;;11.43;5.07;;;;;;;15.32;94.40;101696.69;5264773;28;20142;-64
2022/05/18 00:39:12;;;;;;;13.50;5.38;;;;;;;15.23;93.21;101685.72;5261744;28;20024;-64
2022/05/18 00:41:43;;;;;;;11.07;5.40;;;;;;;15.23;93.48;101687.56;5260147;28;20536;-64
2022/05/18 00:44:14;;;;;;;11.25;5.80;;;;;;;15.35;94.90;101688.38;5258285;28;20036;-65
2022/05/18 00:46:46;;;;;;;11.18;5.82;;;;;;;15.23;95.14;101692.94;5259521;28;20039;-65
2022/05/18 00:49:17;;;;;;;9.35;5.35;;;;;;;15.23;94.20;101692.94;5259828;28;20158;-64
2022/05/18 00:51:53;;;;;;;11.80;5.95;;;;;;;15.19;94.69;101691.50;5262902;28;20070;-65
2022/05/18 00:54:28;;;;;;;11.10;5.63;;;;;;;15.18;94.54;101687.09;5261925;28;20657;-65
2022/05/18 00:57:15;;;;;;;11.18;6.00;;;;;;;15.09;92.83;101691.38;5267356;28;20024;-64
2022/05/18 00:59:56;;;;;;;12.18;6.40;;;;;;;15.06;94.84;101689.81;5266871;28;20379;-64
2022/05/18 01:02:32;;;;;;;13.32;6.05;;;;;;;15.01;94.38;101683.94;5258738;28;20028;-65
2022/05/18 01:05:08;;;;;;;14.35;6.90;;;;;;;15.03;95.43;101682.00;5256462;28;20374;-65
2022/05/18 01:07:47;;;;;;;9.82;5.97;;;;;;;15.04;95.53;101694.44;5261562;28;20467;-65
2022/05/18 01:10:18;;;;;;;13.13;5.82;;;;;;;15.09;95.62;101691.38;5250368;28;20036;-65
2022/05/18 01:12:50;;;;;;;9.45;5.43;;;;;;;14.99;95.77;101693.97;5262877;28;20681;-64
2022/05/18 01:15:22;;;;;;;10.20;5.40;;;;;;;14.90;95.02;101690.22;5263054;28;20039;-64
2022/05/18 01:17:58;;;;;;;16.55;6.10;;;;;;;14.89;95.15;101687.66;5266009;28;20115;-65
2022/05/18 01:20:34;;;;;;;9.38;5.40;;;;;;;14.96;96.24;101690.66;5270579;28;20052;-65
2022/05/18 01:23:31;;;;;;;8.25;5.35;;;;;;;14.96;95.22;101691.53;5266307;28;20051;-64
2022/05/18 01:26:10;;;;;;;10.90;5.10;;;;;;;14.94;96.89;101690.81;5271283;28;20103;-65
2022/05/18 01:28:49;;;;;;;10.80;5.70;;;;;;;14.96;97.56;101685.28;5267965;28;20499;-65
2022/05/18 01:31:59;;;;;;;10.65;5.40;;;;;;;14.92;96.58;101684.72;5267960;28;20479;-65
2022/05/18 01:34:35;;;;;;;9.90;5.60;;;;;;;14.91;96.49;101693.75;5267766;28;20044;-64
2022/05/18 01:37:06;;;;;;;11.48;5.40;;;;;;;14.82;97.04;101684.63;5262062;28;20030;-65
2022/05/18 01:39:51;;;;;;;15.20;5.97;;;;;;;14.87;97.16;101689.59;5263678;28;20021;-64
2022/05/18 01:42:27;;;;;;;11.30;5.90;;;;;;;14.79;96.95;101689.38;5268734;28;20039;-64
2022/05/18 01:44:58;;;;;;;9.18;5.43;;;;;;;14.81;97.22;101692.78;5269861;28;20043;-65
2022/05/18 01:47:35;;;;;;;8.73;5.60;;;;;;;14.78;97.61;101687.66;5270264;28;20059;-64
2022/05/18 01:50:14;;;;;;;10.35;5.40;;;;;;;14.92;98.54;101686.53;5275233;28;20039;-64
2022/05/18 01:52:45;;;;;;;9.57;5.88;;;;;;;14.87;98.20;101685.06;5266156;28;20139;-64
2022/05/18 01:55:17;;;;;;;8.05;5.63;;;;;;;14.90;99.09;101684.00;5273455;28;20029;-64
2022/05/18 01:57:49;;;;;;;9.43;5.40;;;;;;;14.81;97.34;101684.75;5272554;28;20039;-64
2022/05/18 02:00:20;;;;;;;9.50;5.63;;;;;;;14.77;97.38;101688.66;5271966;28;20785;-65
2022/05/18 02:02:52;;;;;;;10.20;6.00;;;;;;;14.79;97.14;101684.84;5269389;28;20032;-64
2022/05/18 02:05:23;;;;;;;10.85;6.18;;;;;;;14.75;98.78;101678.03;5271928;28;20165;-65
2022/05/18 02:07:57;;;;;;;11.07;6.47;;;;;;;14.76;98.93;101690.47;5271400;28;20028;-65
2022/05/18 02:10:28;;;;;;;10.10;6.93;;;;;;;14.87;99.63;101686.91;5271760;28;20557;-64
2022/05/18 02:12:59;;;;;;;11.75;7.32;;;;;;;14.74;99.06;101689.72;5271027;28;20103;-65
2022/05/18 02:15:31;;;;;;;9.77;6.78;;;;;;;14.81;100.00;101687.41;5267502;28;20522;-65
2022/05/18 02:18:02;;;;;;;11.75;7.30;;;;;;;14.75;99.97;101685.25;5275659;28;20481;-65
2022/05/18 02:20:34;;;;;;;9.68;6.70;;;;;;;14.77;100.00;101685.97;5269316;28;20105;-64
2022/05/18 02:23:07;;;;;;;11.30;6.78;;;;;;;14.66;99.26;101689.50;5274225;28;20063;-64
2022/05/18 02:25:39;;;;;;;8.48;7.00;;;;;;;14.70;100.00;101686.44;5272228;28;20027;-65
2022/05/18 02:28:11;;;;;;;10.82;7.10;;;;;;;14.70;100.00;101678.38;5270723;28;20032;-65
2022/05/18 02:30:42;;;;;;;9.65;7.20;;;;;;;14.76;100.00;101670.81;5270357;28;20036;-64
2022/05/18 02:33:13;;;;;;;12.80;7.50;;;;;;;14.74;100.00;101675.47;5278937;28;20112;-65
2022/05/18 02:35:44;;;;;;;9.75;7.05;;;;;;;14.78;100.00;101674.22;5273590;28;20051;-64
2022/05/18 02:38:15;;;;;;;10.70;7.40;;;;;;;14.76;100.00;101678.88;5272343;28;20498;-65
2022/05/18 02:40:47;;;;;;;9.45;7.22;;;;;;;14.67;99.57;101683.16;5276959;28;20054;-65
2022/05/18 02:43:18;;;;;;;10.85;7.03;;;;;;;14.76;100.00;101674.34;5274701;28;20055;-65
2022/05/18 02:45:49;;;;;;;9.80;6.88;;;;;;;14.74;100.00;101680.84;5271171;28;21730;-65
2022/05/18 02:48:21;;;;;;;12.88;6.78;;;;;;;14.79;100.00;101687.53;5273643;28;20368;-65
2022/05/18 02:50:52;;;;;;;10.25;7.15;;;;;;;14.76;100.00;101686.94;5259734;28;20051;-65
2022/05/18 02:53:24;;;;;;;11.00;7.03;;;;;;;14.80;100.00;101681.16;5279173;28;20627;-65
2022/05/18 02:56:07;;;;;;;10.80;7.00;;;;;;;14.69;100.00;101673.16;5270455;28;20521;-65
2022/05/18 02:58:42;;;;;;;12.60;7.80;;;;;;;14.77;100.00;101678.75;5275662;28;20047;-64
2022/05/18 03:01:19;;;;;;;11.07;7.82;;;;;;;14.82;100.00;101683.75;5269955;28;20024;-65
2022/05/18 03:03:51;;;;;;;12.00;8.23;;;;;;;14.81;100.00;101687.41;5264157;28;20590;-65
2022/05/18 03:06:24;;;;;;;12.90;8.50;;;;;;;14.72;99.86;101707.81;5268517;28;20051;-65
2022/05/18 03:08:56;;;;;;;12.52;8.55;;;;;;;14.82;100.00;101691.81;5271333;28;20447;-65
2022/05/18 03:11:27;;;;;;;11.75;8.82;;;;;;;14.81;100.00;101700.84;5282185;28;20031;-65
2022/05/18 03:13:58;;;;;;;10.90;8.68;;;;;;;14.84;100.00;101698.78;5270177;28;20036;-65
2022/05/18 03:16:31;;;;;;;12.95;8.85;;;;;;;14.77;100.00;101702.09;5272525;28;20036;-65
2022/05/18 03:19:02;;;;;;;14.32;8.30;;;;;;;14.83;100.00;101705.13;5274012;28;20035;-65
2022/05/18 03:24:24;;;;;;;12.18;8.45;;;;;;;14.84;100.00;101709.53;5264511;28;20040;-65
2022/05/18 03:26:55;;;;;;;10.70;8.65;;;;;;;14.85;100.00;101708.53;5261273;28;20037;-65
2022/05/18 03:29:26;;;;;;;11.63;8.32;;;;;;;14.82;100.00;101710.59;5263773;28;20490;-65
2022/05/18 03:31:57;;;;;;;11.05;7.70;;;;;;;14.94;100.00;101701.56;5267927;28;20028;-65
2022/05/18 03:34:29;;;;;;;12.20;8.60;;;;;;;14.92;100.00;101711.59;5262966;28;20055;-65
2022/05/18 03:37:00;;;;;;;14.07;8.23;;;;;;;14.87;100.00;101716.47;5262500;28;20036;-65
2022/05/18 03:39:32;;;;;;;12.38;7.90;;;;;;;14.85;100.00;101713.06;5275152;28;20032;-65
2022/05/18 03:42:04;;;;;;;16.92;8.38;;;;;;;14.82;99.42;101721.34;5268454;28;20028;-65
2022/05/18 03:44:35;;;;;;;11.20;8.32;;;;;;;14.89;100.00;101717.19;5274726;28;20028;-65
2022/05/18 03:47:07;;;;;;;15.45;8.43;;;;;;;14.87;100.00;101727.22;5274243;28;20055;-65
2022/05/18 03:49:38;;;;;;;10.95;8.20;;;;;;;14.86;100.00;101736.25;5275972;28;20036;-65
2022/05/18 03:52:09;;;;;;;12.27;9.00;;;;;;;14.95;99.88;101727.44;5273125;28;20103;-65
2022/05/18 03:54:40;;;;;;;12.40;7.90;;;;;;;14.95;99.20;101732.81;5274147;28;20039;-65
2022/05/18 03:57:12;;;;;;;11.50;8.20;;;;;;;14.94;100.00;101725.75;5269921;28;20150;-65
2022/05/18 03:59:43;;;;;;;11.63;8.18;;;;;;;14.97;100.00;101721.97;5271342;28;20017;-65
2022/05/18 04:02:14;;;;;;;12.48;8.35;;;;;;;15.00;98.91;101721.72;5271166;28;20228;-65
2022/05/18 04:04:45;;;;;;;13.93;8.50;;;;;;;15.09;98.56;101724.50;5265167;28;20028;-65
2022/05/18 04:07:17;;;;;;;11.77;8.48;;;;;;;15.07;98.25;101717.53;5260826;28;20111;-64
2022/05/18 04:09:48;;;;;;;10.85;8.48;;;;;;;15.15;97.74;101722.28;5270982;28;20037;-65
2022/05/18 04:12:19;;;;;;;10.57;7.50;;;;;;;15.20;97.19;101722.75;5263778;28;20032;-65
2022/05/18 04:14:54;;;;;;;11.15;7.60;;;;;;;15.28;96.99;101722.97;5267346;28;20029;-65
2022/05/18 04:17:25;;;;;;;;;;;;;;;15.33;96.45;101723.47;5262158;28;20535;-65
2022/05/18 04:19:57;;;;;;;9.50;6.85;;;;;;;15.47;95.41;101723.19;5262534;28;20417;-65
2022/05/18 04:22:28;;;;;;;11.82;6.88;;;;;;;15.53;94.80;101735.25;5262246;28;20102;-65
2022/05/18 04:25:01;;;;;;;10.50;6.88;;;;;;;15.66;94.46;101727.00;5260897;28;20033;-65
2022/05/18 04:27:32;;;;;;;11.00;6.70;;;;;;;15.72;93.59;101731.88;5254744;28;20025;-65
2022/05/18 04:30:05;;;;;;;8.45;5.90;;;;;;;15.84;92.84;101728.19;5257837;28;20062;-64
2022/05/18 04:32:38;;;;;;;9.02;5.80;;;;;;;15.94;92.97;101725.56;5263431;28;20108;-65
2022/05/18 04:35:12;;;;;;;9.07;5.90;;;;;;;16.15;91.64;101739.03;5262447;28;20084;-65
2022/05/18 04:37:43;;;;;;;8.90;5.70;;;;;;;16.15;91.52;101728.25;5258871;28;20040;-65
2022/05/18 04:40:15;;;;;;;9.07;6.10;;;;;;;16.25;91.02;101739.94;5269368;28;20710;-65
2022/05/18 04:42:47;;;;;;;9.15;5.95;;;;;;;16.39;89.63;101748.66;5264184;28;20071;-65
2022/05/18 04:45:21;;;;;;;11.77;5.70;;;;;;;16.41;89.59;101749.38;5261531;28;20746;-65
2022/05/18 04:47:53;;;;;;;11.07;5.38;;;;;;;16.51;88.26;101752.09;5260747;28;20431;-65
2022/05/18 04:50:24;;;;;;;8.55;5.15;;;;;;;16.44;88.78;101751.81;5261580;28;20036;-65
2022/05/18 04:52:55;;;;;;;8.20;5.30;;;;;;;16.56;88.03;101750.72;5260957;28;20036;-65
2022/05/18 04:55:27;;;;;;;9.25;5.60;;;;;;;16.44;89.91;101759.88;5271039;28;20502;-65
2022/05/18 04:58:01;;;;;;;9.82;5.32;;;;;;;16.60;87.38;101762.94;5264887;28;20138;-65
2022/05/18 05:00:33;;;;;;;8.60;5.03;;;;;;;16.65;88.17;101763.38;5264092;28;20224;-65
2022/05/18 05:03:05;;;;;;;8.73;5.60;;;;;;;16.77;87.06;101766.84;5261805;28;20052;-65
2022/05/18 05:05:36;;;;;;;8.93;5.30;;;;;;;16.87;86.98;101769.59;5257113;28;20115;-65
2022/05/18 05:08:07;;;;;;;7.88;5.10;;;;;;;17.00;87.12;101767.53;5258720;28;20027;-65
2022/05/18 05:10:38;;;;;;;8.73;5.40;;;;;;;17.12;87.01;101770.13;5264401;28;20067;-65
2022/05/18 05:13:10;;;;;;;8.98;5.30;;;;;;;17.29;84.45;101771.31;5267680;28;20036;-64
2022/05/18 05:15:41;;;;;;;6.85;5.13;;;;;;;17.40;83.89;101784.69;5262297;28;20028;-65
2022/05/18 05:18:12;;;;;;;8.85;5.45;;;;;;;17.47;84.12;101784.97;5266199;28;20075;-65
2022/05/18 05:20:43;;;;;;;10.02;5.53;;;;;;;17.59;84.44;101786.56;5262319;28;20509;-65
2022/05/18 05:23:15;;;;;;;6.75;4.60;;;;;;;17.69;83.84;101794.66;5268571;28;20461;-65
2022/05/18 05:25:46;;;;;;;7.32;5.00;;;;;;;17.79;83.15;101792.81;5266467;28;20871;-65
2022/05/18 05:28:18;;;;;;;6.00;4.70;;;;;;;17.87;81.84;101787.56;5280571;28;20323;-65
2022/05/18 05:30:50;;;;;;;7.82;5.38;;;;;;;17.96;80.84;101792.13;5273643;28;20046;-65
2022/05/18 05:33:21;;;;;;;8.13;5.05;;;;;;;18.06;80.27;101792.13;5274161;28;20040;-65
2022/05/18 05:35:52;;;;;;;9.07;4.95;;;;;;;18.13;80.21;101797.81;5269607;28;20039;-65
2022/05/18 05:38:23;;;;;;;6.75;4.78;;;;;;;18.19;81.00;101800.78;5266350;28;20413;-65
2022/05/18 05:40:55;;;;;;;8.88;4.40;;;;;;;18.30;80.20;101799.78;5268823;28;20757;-65
2022/05/18 05:43:27;;;;;;;8.15;5.05;;;;;;;18.31;82.34;101806.03;5273047;28;20024;-65
2022/05/18 05:46:02;;;;;;;8.55;4.80;;;;;;;18.38;82.44;101801.75;5271085;28;20024;-65
2022/05/18 05:48:34;;;;;;;9.18;4.65;;;;;;;18.45;82.27;101802.91;5271324;28;20077;-65
2022/05/18 05:51:06;;;;;;;8.00;4.50;;;;;;;18.63;82.11;101805.69;5277940;28;20029;-65
2022/05/18 05:53:39;;;;;;;6.75;4.40;;;;;;;18.80;80.12;101812.22;5269924;28;20064;-65
2022/05/18 05:56:13;;;;;;;6.05;4.25;;;;;;;18.98;80.59;101821.25;5273461;28;20066;-65
2022/05/18 05:58:45;;;;;;;7.28;4.20;;;;;;;19.08;79.75;101820.34;5276221;28;20371;-65
2022/05/18 06:01:18;;;;;;;9.90;4.40;;;;;;;19.24;77.67;101828.69;5271550;28;20028;-65
2022/05/18 06:03:49;;;;;;;6.97;4.20;;;;;;;19.29;76.68;101822.81;5274809;28;20882;-65
2022/05/18 06:06:21;;;;;;;9.23;4.70;;;;;;;19.35;77.51;101828.47;5274514;28;20048;-65
2022/05/18 06:08:52;;;;;;;7.47;4.40;;;;;;;19.29;82.08;101823.69;5279176;28;20094;-65
2022/05/18 06:11:25;;;;;;;7.40;3.92;;;;;;;19.51;77.41;101827.81;5273386;28;20032;-65
2022/05/18 06:13:56;;;;;;;10.75;4.50;;;;;;;19.43;79.63;101824.19;5272298;28;20036;-65
2022/05/18 06:16:28;;;;;;;7.68;4.00;;;;;;;19.55;79.15;101825.66;5268881;28;20055;-65
2022/05/18 06:19:01;;;;;;;9.20;3.97;;;;;;;19.57;79.60;101831.75;5266849;28;20028;-65
2022/05/18 06:21:32;;;;;;;6.93;3.63;;;;;;;19.62;80.48;101845.69;5274069;28;20402;-65
2022/05/18 06:24:03;;;;;;;10.32;4.25;;;;;;;19.76;76.92;101858.75;5264123;28;20053;-65
2022/05/18 06:26:36;;;;;;;9.48;4.15;;;;;;;19.83;75.60;101853.56;5269681;28;20035;-65
2022/05/18 06:29:07;;;;;;;7.70;3.97;;;;;;;19.83;77.61;101856.28;5272986;28;20024;-65
2022/05/18 06:31:38;;;;;;;8.00;4.65;;;;;;;20.07;72.99;101854.81;5271100;28;20560;-65
2022/05/18 06:34:10;;;;;;;6.93;3.92;;;;;;;20.13;74.97;101860.44;5272418;28;20110;-65
2022/05/18 06:36:41;;;;;;;6.68;4.00;;;;;;;20.16;77.13;101860.16;5269737;28;20036;-64
2022/05/18 06:39:12;;;;;;;10.38;4.10;;;;;;;20.31;73.62;101860.44;5275731;28;20115;-64
2022/05/18 06:41:46;;;;;;;10.68;4.63;;;;;;;20.40;71.54;101865.94;5263874;28;20029;-64
2022/05/18 06:44:18;;;;;;;16.00;4.53;;;;;;;20.37;72.70;101872.53;5267554;28;20028;-65
2022/05/18 06:46:50;;;;;;;11.65;3.72;;;;;;;20.41;71.13;101870.34;5266184;28;20688;-64
2022/05/18 06:49:21;;;;;;;9.70;4.75;;;;;;;20.46;72.05;101871.59;5263783;28;20054;-64
2022/05/18 06:51:53;;;;;;;13.05;4.68;;;;;;;20.57;68.47;101867.75;5264849;28;20053;-64
2022/05/18 06:54:25;;;;;;;10.15;4.32;;;;;;;20.55;68.57;101872.50;5267009;28;20025;-64
2022/05/18 06:56:56;;;;;;;12.80;5.40;;;;;;;20.47;73.21;101875.16;5264216;28;20035;-65
2022/05/18 06:59:27;;;;;;;11.32;5.00;;;;;;;20.50;72.16;101872.09;5265278;28;20382;-65
2022/05/18 07:01:58;;;;;;;10.93;5.60;;;;;;;20.69;68.92;101876.50;5264648;28;20090;-64
2022/05/18 07:04:30;;;;;;;12.30;5.60;;;;;;;20.71;69.31;101874.50;5268828;28;20067;-64
2022/05/18 07:07:02;;;;;;;10.05;5.95;;;;;;;20.79;69.68;101882.72;5270874;28;20086;-64
2022/05/18 07:09:33;;;;;;;11.73;6.13;;;;;;;20.84;69.92;101888.47;5273308;28;20973;-64
2022/05/18 07:12:04;;;;;;;12.23;7.15;;;;;;;20.95;67.83;101885.50;5277684;28;20032;-65
2022/05/18 07:14:36;;;;;;;14.85;6.97;;;;;;;21.00;67.57;101901.31;5271206;28;20035;-65
2022/05/18 07:17:07;;;;;;;12.70;8.25;;;;;;;21.11;68.73;101894.75;5271819;28;20028;-65
2022/05/18 07:19:38;;;;;;;12.05;8.15;;;;;;;21.12;67.85;101893.75;5270040;28;20036;-65
2022/05/18 07:22:11;;;;;;;12.32;8.18;;;;;;;21.20;68.48;101882.94;5274632;28;20517;-65
2022/05/18 07:24:43;;;;;;;10.75;7.22;;;;;;;21.30;68.03;101893.66;5274453;28;20040;-65
2022/05/18 07:27:16;;;;;;;12.90;7.97;;;;;;;21.32;68.90;101902.50;5278397;28;20052;-65
2022/05/18 07:29:48;;;;;;;13.43;7.30;;;;;;;21.44;70.65;101909.38;5276457;28;20028;-65
2022/05/18 07:32:19;;;;;;;14.05;7.53;;;;;;;21.45;69.36;101899.38;5273138;28;20051;-65
2022/05/18 07:34:50;;;;;;;11.95;7.75;;;;;;;21.43;68.12;101901.38;5275948;28;20473;-65
2022/05/18 07:37:22;;;;;;;13.57;7.82;;;;;;;21.46;68.61;101901.94;5278965;28;20434;-65
2022/05/18 07:39:53;;;;;;;11.20;8.25;;;;;;;21.31;68.20;101898.09;5275139;28;20544;-65
2022/05/18 07:42:24;;;;;;;12.63;8.55;;;;;;;21.25;68.80;101894.16;5275346;28;20025;-65
2022/05/18 07:44:56;;;;;;;13.65;8.23;;;;;;;21.29;69.59;101900.97;5277089;28;20087;-65
2022/05/18 07:47:31;;;;;;;11.20;7.88;;;;;;;21.42;71.58;101896.94;5278803;28;20025;-65
2022/05/18 07:50:04;;;;;;;13.15;7.85;;;;;;;21.43;69.68;101901.38;5277114;28;20499;-65
2022/05/18 07:52:35;;;;;;;13.93;7.47;;;;;;;21.57;69.45;101905.34;5278434;28;20056;-65
2022/05/18 07:55:07;;;;;;;11.95;7.43;;;;;;;21.78;71.25;101907.63;5277461;28;20103;-65
2022/05/18 07:57:38;;;;;;;14.43;7.88;;;;;;;21.94;68.68;101913.13;5272893;28;20112;-65
2022/05/18 08:00:11;;;;;;;13.38;7.80;;;;;;;22.04;70.35;101915.69;5277737;28;20032;-65
2022/05/18 08:02:43;;;;;;;12.05;7.95;;;;;;;22.17;68.13;101920.63;5275614;28;20032;-65
2022/05/18 08:05:15;;;;;;;12.93;9.13;;;;;;;22.28;67.46;101913.03;5271639;28;20102;-65
2022/05/18 08:07:46;;;;;;;14.40;8.07;;;;;;;22.29;66.95;101925.59;5273612;28;20412;-65
2022/05/18 08:16:00;;;;;;;14.02;8.90;;;;;;;22.23;68.26;101926.25;5275243;28;20163;-66
2022/05/18 08:18:31;;;;;;;14.35;9.30;;;;;;;22.18;67.30;101912.31;5274460;28;20119;-64
2022/05/18 08:21:03;;;;;;;12.70;9.20;;;;;;;22.20;69.25;101923.00;5274505;28;20035;-67
2022/05/18 08:23:35;;;;;;;16.13;9.60;;;;;;;22.28;69.52;101915.75;5276930;28;20134;-65
2022/05/18 08:26:07;;;;;;;14.70;9.85;;;;;;;22.29;68.63;101916.59;5274903;28;20032;-65
2022/05/18 08:28:38;;;;;;;14.45;9.93;;;;;;;22.28;68.34;101920.31;5269285;28;20205;-67
2022/05/18 08:31:09;;;;;;;14.15;9.98;;;;;;;22.38;67.87;101917.44;5271162;28;20027;-65
2022/05/18 08:33:40;;;;;;;14.35;10.02;;;;;;;22.35;68.35;101915.09;5275378;28;20035;-65
2022/05/18 08:36:12;;;;;;;10.80;8.13;;;;;;;22.47;66.89;101933.59;5268043;28;20044;-64
2022/05/18 08:38:43;;;;;;;11.23;8.65;;;;;;;22.42;67.45;101925.13;5275527;28;20028;-65
2022/05/18 08:41:21;;;;;;;13.15;8.63;;;;;;;22.50;67.09;101927.81;5276469;28;20033;-66
2022/05/18 08:43:55;;;;;;;9.82;7.75;;;;;;;22.55;67.20;101930.06;5273296;28;20086;-67
2022/05/18 08:46:41;;;;;;;11.25;7.85;;;;;;;22.67;68.90;101936.00;5275890;28;20052;-66
2022/05/18 08:49:39;;;;;;;11.15;7.70;;;;;;;22.70;67.19;101935.63;5275163;28;20032;-65
2022/05/18 08:52:17;;;;;;;12.02;7.65;;;;;;;22.85;68.11;101927.63;5275642;28;20114;-65
2022/05/18 08:55:16;;;;;;;11.27;7.60;;;;;;;22.92;66.56;101933.25;5261993;28;20028;-65
2022/05/18 08:57:48;;;;;;;11.77;8.15;;;;;;;23.10;65.85;101929.31;5270236;28;20517;-65
2022/05/18 09:00:23;;;;;;;10.75;7.97;;;;;;;23.06;66.15;101932.56;5267817;28;20016;-65
2022/05/18 09:03:03;;;;;;;12.35;8.15;;;;;;;23.04;65.97;101932.75;5273926;28;20070;-65
2022/05/18 09:05:43;;;;;;;12.90;9.10;;;;;;;22.95;67.16;101932.91;5269103;28;20055;-66
2022/05/18 09:08:21;;;;;;;11.88;8.35;;;;;;;23.01;66.34;101941.25;5282868;28;20042;-66
2022/05/18 09:10:53;;;;;;;12.05;9.32;;;;;;;23.03;65.46;101930.19;5275264;28;20517;-66
2022/05/18 09:13:24;;;;;;;11.07;7.97;;;;;;;23.15;65.73;101931.53;5277051;28;20036;-67
2022/05/18 09:16:09;;;;;;;12.30;7.38;;;;;;;23.34;64.67;101930.28;5268618;28;20377;-66
2022/05/18 09:18:50;;;;;;;10.70;8.25;;;;;;;23.35;64.02;101931.13;5271169;28;20028;-66
2022/05/18 09:21:28;;;;;;;10.43;7.97;;;;;;;23.43;65.24;101928.38;5270944;28;20108;-66
2022/05/18 09:24:43;;;;;;;10.13;7.15;;;;;;;23.57;63.35;101930.38;5274687;28;20044;-66
2022/05/18 09:27:57;;;;;;;9.80;4.70;;;;;;;23.63;62.43;101940.56;5272190;28;20777;-66
2022/05/18 09:31:11;;;;;;;6.85;3.78;;;;;;;23.74;63.49;101938.47;5265175;28;20079;-66
2022/05/18 09:33:44;;;;;;;6.22;3.65;;;;;;;23.66;60.47;101933.91;5268106;28;20492;-67
2022/05/18 09:36:53;;;;;;;6.07;3.65;;;;;;;23.82;61.31;101936.59;5272145;28;20036;-67
2022/05/18 09:39:30;;;;;;;9.65;4.60;;;;;;;23.66;60.11;101932.03;5276120;28;20035;-66
2022/05/18 09:42:07;;;;;;;7.03;3.88;;;;;;;23.80;59.16;101940.53;5268050;28;20039;-67
2022/05/18 09:44:51;;;;;;;9.75;4.50;;;;;;;23.83;62.37;101934.69;5274121;28;20039;-67
2022/05/18 09:47:23;;;;;;;;;;;;;;;24.20;61.45;101942.16;5276206;28;20078;-66
2022/05/18 09:50:00;;;;;;;7.07;3.70;;;;;;;24.13;61.38;101924.81;5274747;28;19920;-66
2022/05/18 09:52:34;;;;;;;4.88;2.95;;;;;;;24.37;59.30;101933.84;5268900;28;20024;-66
2022/05/18 09:55:08;;;;;;;6.75;3.13;;;;;;;24.48;58.39;101932.56;5273954;28;20143;-66
2022/05/18 09:57:51;;;;;;;7.28;2.70;;;;;;;24.55;58.89;101930.84;5271882;28;20039;-66
2022/05/18 10:00:25;;;;;;;5.60;2.75;;;;;;;24.62;56.79;101939.97;5274530;28;20055;-67
2022/05/18 10:08:53;;;;;;;5.47;2.15;;;;;;;24.39;56.35;101946.28;5269368;28;20428;-66
2022/05/18 10:11:30;;;;;;;5.82;2.30;;;;;;;24.25;56.68;101949.78;5276132;28;20442;-66
2022/05/18 10:14:10;;;;;;;5.78;1.88;;;;;;;24.27;56.20;101936.81;5269420;28;20031;-67
2022/05/18 10:16:47;;;;;;;4.95;1.63;;;;;;;24.31;55.47;101938.13;5269315;28;20028;-66
2022/05/18 10:19:28;;;;;;;3.50;1.40;;;;;;;24.12;55.54;101933.16;5270179;28;20029;-66
2022/05/18 10:22:03;;;;;;;4.50;1.73;;;;;;;24.30;56.14;101933.72;5265588;28;20045;-68
2022/05/18 10:24:51;;;;;;;5.28;1.73;;;;;;;24.39;57.23;101939.97;5271994;28;20056;-67
2022/05/18 10:27:41;;;;;;;5.07;1.90;;;;;;;24.40;56.77;101937.06;5270454;28;20024;-67
2022/05/18 10:30:25;;;;;;;5.57;2.65;;;;;;;24.41;54.24;101935.16;5276092;28;20032;-67
2022/05/18 10:32:56;;;;;;;;;;;;;;;24.47;56.60;101937.19;5274353;28;20371;-68
2022/05/18 10:35:33;;;;;;;6.47;2.23;;;;;;;24.35;55.15;101931.28;5271165;28;20049;-67
2022/05/18 10:38:17;;;;;;;5.22;2.63;;;;;;;24.39;55.05;101932.66;5277310;28;20298;-67
2022/05/18 10:40:51;;;;;;;4.75;2.40;;;;;;;24.42;54.42;101918.63;5276633;28;20133;-67
2022/05/18 10:43:38;;;;;;;9.68;3.30;;;;;;;24.53;56.30;101924.72;5282299;28;20121;-67
2022/05/18 10:46:15;;;;;;;6.78;3.35;;;;;;;24.51;54.95;101921.28;5273569;28;20572;-67
2022/05/18 10:48:56;;;;;;;5.90;2.65;;;;;;;24.60;55.83;101925.66;5275429;28;20191;-69
2022/05/18 10:51:38;;;;;;;5.68;3.40;;;;;;;24.49;56.78;101921.50;5275112;28;20086;-67
2022/05/18 10:54:26;;;;;;;4.28;3.03;;;;;;;24.55;56.76;101917.22;5275632;28;20032;-67
2022/05/18 10:57:15;;;;;;;6.20;3.13;;;;;;;24.55;57.77;101909.03;5274493;28;20356;-67
2022/05/18 10:59:59;;;;;;;7.72;3.13;;;;;;;24.78;57.07;101911.72;5268404;28;20170;-67
2022/05/18 11:02:42;;;;;;;5.65;2.95;;;;;;;24.73;55.58;101920.44;5269650;28;20086;-67
2022/05/18 11:05:44;;;;;;;6.97;3.05;;;;;;;24.70;55.92;101911.75;5277983;28;20173;-67
2022/05/18 11:08:19;;;;;;;5.10;2.75;;;;;;;24.98;55.11;101915.56;5277484;28;20044;-68
2022/05/18 11:11:19;;;;;;;6.78;3.42;;;;;;;24.98;55.16;101917.47;5279116;28;20125;-67
2022/05/18 11:14:25;;;;;;;8.75;4.03;;;;;;;24.80;54.22;101913.22;5283473;28;20040;-68
2022/05/18 11:17:20;;;;;;;6.93;3.70;;;;;;;24.88;54.42;101908.72;5273502;28;20107;-67
2022/05/18 11:20:12;;;;;;;5.57;3.30;;;;;;;25.13;55.72;101904.66;5278017;28;20028;-67
2022/05/18 11:23:05;;;;;;;9.20;3.70;;;;;;;25.01;55.59;101912.47;5272916;28;20135;-67
2022/05/18 11:26:00;;;;;;;7.18;3.55;;;;;;;25.13;56.11;101910.13;5276813;28;20447;-67
2022/05/18 11:28:42;;;;;;;10.32;4.13;;;;;;;25.09;54.91;101908.81;5279904;28;20024;-67
2022/05/18 11:31:43;;;;;;;7.63;3.67;;;;;;;25.31;54.39;101900.75;5279312;28;20028;-68
2022/05/18 11:34:31;;;;;;;5.80;3.40;;;;;;;25.22;54.27;101891.78;5273465;28;20042;-67
2022/05/18 11:37:14;;;;;;;8.38;3.33;;;;;;;25.42;53.80;101897.53;5273304;28;20037;-67
2022/05/18 11:39:57;;;;;;;10.95;3.83;;;;;;;25.17;53.35;101900.53;5277827;28;20024;-67
2022/05/18 11:42:40;;;;;;;8.63;3.70;;;;;;;25.18;54.11;101896.75;5276121;28;20124;-67
2022/05/18 11:45:32;;;;;;;5.88;2.88;;;;;;;25.23;53.72;101894.31;5276898;28;20377;-67
2022/05/18 11:48:30;;;;;;;10.15;3.50;;;;;;;25.31;54.42;101881.63;5275537;28;20029;-67
2022/05/18 11:51:20;;;;;;;7.60;2.95;;;;;;;25.34;54.25;101889.44;5267709;28;20032;-67
2022/05/18 11:54:02;;;;;;;6.80;3.35;;;;;;;25.51;54.17;101890.94;5274944;28;20190;-67
2022/05/18 11:57:13;;;;;;;9.70;3.17;;;;;;;25.59;53.94;101899.00;5277652;28;20128;-68
2022/05/18 12:00:03;;;;;;;6.95;3.30;;;;;;;25.74;55.49;101895.41;5268963;28;20059;-66
2022/05/18 12:03:00;;;;;;;8.02;3.30;;;;;;;25.77;53.78;101892.28;5272393;28;20020;-66
2022/05/18 12:05:52;;;;;;;6.30;3.20;;;;;;;25.94;53.55;101898.38;5275691;28;20071;-67
2022/05/18 12:09:01;;;;;;;6.68;4.18;;;;;;;25.70;52.75;101899.56;5277662;28;20036;-67
2022/05/18 12:11:44;;;;;;;9.05;3.60;;;;;;;25.68;52.43;101887.94;5275250;28;20040;-66
2022/05/18 12:14:32;;;;;;;6.75;3.42;;;;;;;25.65;53.72;101896.56;5273997;28;20039;-67
2022/05/18 12:17:14;;;;;;;6.15;3.20;;;;;;;25.98;54.32;101886.88;5277663;28;20509;-67